sensor_id;sensor_type;location;lat;lon;timestamp;P1;durP1;ratioP1;P2;durP2;ratioP2
5555;SDS011;2801;50.972;7.856;2023-09-08T00:00:55;9.80;;;7.38;;
5555;SDS011;2801;50.972;7.856;2023-09-08T00:03:25;8.55;;;7.22;;
5555;SDS011;2801;50.972;7.856;2023-09-08T00:05:54;9.20;;;7.22;;
5555;SDS011;2801;50.972;7.856;2023-09-08T00:08:23;15.02;;;7.13;;
5555;SDS011;2801;50.972;7.856;2023-09-08T00:10:51;11.43;;;7.60;;
5555;SDS011;2801;50.972;7.856;2023-09-08T00:13:18;9.77;;;7.00;;
5555;SDS011;2801;50.972;7.856;2023-09-08T00:15:47;11.05;;;7.00;;
5555;SDS011;2801;50.972;7.856;2023-09-08T00:18:14;10.77;;;7.10;;
5555;SDS011;2801;50.972;7.856;2023-09-08T00:20:41;9.60;;;6.78;;
5555;SDS011;2801;50.972;7.856;2023-09-08T00:23:08;9.90;;;6.97;;
5555;SDS011;2801;50.972;7.856;2023-09-08T00:25:35;9.60;;;7.32;;
5555;SDS011;2801;50.972;7.856;2023-09-08T00:28:05;9.77;;;7.03;;
5555;SDS011;2801;50.972;7.856;2023-09-08T00:30:33;11.40;;;7.78;;
5555;SDS011;2801;50.972;7.856;2023-09-08T00:33:00;9.40;;;7.55;;
5555;SDS011;2801;50.972;7.856;2023-09-08T00:35:27;10.63;;;7.30;;
5555;SDS011;2801;50.972;7.856;2023-09-08T00:37:54;9.70;;;7.10;;
5555;SDS011;2801;50.972;7.856;2023-09-08T00:40:21;8.65;;;6.55;;
5555;SDS011;2801;50.972;7.856;2023-09-08T00:42:48;9.27;;;6.93;;
5555;SDS011;2801;50.972;7.856;2023-09-08T00:45:15;9.25;;;7.05;;
5555;SDS011;2801;50.972;7.856;2023-09-08T00:47:42;10.35;;;7.05;;
5555;SDS011;2801;50.972;7.856;2023-09-08T00:50:10;9.38;;;7.22;;
5555;SDS011;2801;50.972;7.856;2023-09-08T00:52:38;10.50;;;7.10;;
5555;SDS011;2801;50.972;7.856;2023-09-08T00:55:06;9.88;;;6.70;;
5555;SDS011;2801;50.972;7.856;2023-09-08T00:57:36;8.93;;;6.45;;
5555;SDS011;2801;50.972;7.856;2023-09-08T01:00:03;9.85;;;6.78;;
5555;SDS011;2801;50.972;7.856;2023-09-08T01:02:36;12.65;;;6.60;;
5555;SDS011;2801;50.972;7.856;2023-09-08T01:05:03;7.65;;;6.22;;
5555;SDS011;2801;50.972;7.856;2023-09-08T01:07:31;10.02;;;6.82;;
5555;SDS011;2801;50.972;7.856;2023-09-08T01:09:59;9.15;;;6.60;;
5555;SDS011;2801;50.972;7.856;2023-09-08T01:12:31;10.95;;;6.22;;
5555;SDS011;2801;50.972;7.856;2023-09-08T01:14:59;9.00;;;6.22;;
5555;SDS011;2801;50.972;7.856;2023-09-08T01:17:33;10.32;;;6.68;;
5555;SDS011;2801;50.972;7.856;2023-09-08T01:20:04;9.35;;;6.80;;
5555;SDS011;2801;50.972;7.856;2023-09-08T01:26:08;11.18;;;7.53;;
5555;SDS011;2801;50.972;7.856;2023-09-08T01:28:43;9.05;;;6.68;;
5555;SDS011;2801;50.972;7.856;2023-09-08T01:31:16;9.65;;;7.30;;
5555;SDS011;2801;50.972;7.856;2023-09-08T01:33:44;10.57;;;6.70;;
5555;SDS011;2801;50.972;7.856;2023-09-08T01:36:13;9.25;;;7.00;;
5555;SDS011;2801;50.972;7.856;2023-09-08T01:38:41;12.43;;;6.75;;
5555;SDS011;2801;50.972;7.856;2023-09-08T01:41:08;11.63;;;6.55;;
5555;SDS011;2801;50.972;7.856;2023-09-08T01:43:36;7.95;;;6.10;;
5555;SDS011;2801;50.972;7.856;2023-09-08T01:46:03;9.63;;;6.32;;
5555;SDS011;2801;50.972;7.856;2023-09-08T01:48:31;10.02;;;7.38;;
5555;SDS011;2801;50.972;7.856;2023-09-08T01:51:01;8.18;;;6.38;;
5555;SDS011;2801;50.972;7.856;2023-09-08T01:53:28;8.15;;;6.40;;
5555;SDS011;2801;50.972;7.856;2023-09-08T01:55:55;10.13;;;6.55;;
5555;SDS011;2801;50.972;7.856;2023-09-08T01:58:22;12.32;;;6.75;;
5555;SDS011;2801;50.972;7.856;2023-09-08T02:00:50;10.18;;;6.50;;
5555;SDS011;2801;50.972;7.856;2023-09-08T02:03:17;8.93;;;6.55;;
5555;SDS011;2801;50.972;7.856;2023-09-08T02:05:45;9.95;;;6.57;;
5555;SDS011;2801;50.972;7.856;2023-09-08T02:08:14;9.32;;;6.78;;
5555;SDS011;2801;50.972;7.856;2023-09-08T02:10:43;7.38;;;6.07;;
5555;SDS011;2801;50.972;7.856;2023-09-08T02:13:10;10.05;;;7.18;;
5555;SDS011;2801;50.972;7.856;2023-09-08T02:15:38;8.88;;;6.38;;
5555;SDS011;2801;50.972;7.856;2023-09-08T02:18:07;8.52;;;6.03;;
5555;SDS011;2801;50.972;7.856;2023-09-08T02:20:35;8.07;;;6.22;;
5555;SDS011;2801;50.972;7.856;2023-09-08T02:23:05;9.07;;;6.45;;
5555;SDS011;2801;50.972;7.856;2023-09-08T02:25:33;9.57;;;6.55;;
5555;SDS011;2801;50.972;7.856;2023-09-08T02:28:02;8.82;;;6.75;;
5555;SDS011;2801;50.972;7.856;2023-09-08T02:30:29;9.15;;;6.93;;
5555;SDS011;2801;50.972;7.856;2023-09-08T02:32:56;9.05;;;6.88;;
5555;SDS011;2801;50.972;7.856;2023-09-08T02:35:25;10.55;;;6.78;;
5555;SDS011;2801;50.972;7.856;2023-09-08T02:37:53;11.35;;;7.00;;
5555;SDS011;2801;50.972;7.856;2023-09-08T02:40:20;7.43;;;5.75;;
5555;SDS011;2801;50.972;7.856;2023-09-08T02:42:47;10.30;;;6.57;;
5555;SDS011;2801;50.972;7.856;2023-09-08T02:45:17;10.25;;;6.70;;
5555;SDS011;2801;50.972;7.856;2023-09-08T02:47:44;10.02;;;6.88;;
5555;SDS011;2801;50.972;7.856;2023-09-08T02:50:11;8.75;;;6.80;;
5555;SDS011;2801;50.972;7.856;2023-09-08T02:52:39;12.68;;;7.80;;
5555;SDS011;2801;50.972;7.856;2023-09-08T02:55:07;11.98;;;7.05;;
5555;SDS011;2801;50.972;7.856;2023-09-08T02:57:34;10.90;;;6.40;;
5555;SDS011;2801;50.972;7.856;2023-09-08T03:00:01;8.65;;;6.32;;
5555;SDS011;2801;50.972;7.856;2023-09-08T03:02:30;9.77;;;7.20;;
5555;SDS011;2801;50.972;7.856;2023-09-08T03:04:57;10.57;;;7.30;;
5555;SDS011;2801;50.972;7.856;2023-09-08T03:07:30;9.45;;;7.43;;
5555;SDS011;2801;50.972;7.856;2023-09-08T03:09:59;9.38;;;6.78;;
5555;SDS011;2801;50.972;7.856;2023-09-08T03:12:26;11.32;;;6.63;;
5555;SDS011;2801;50.972;7.856;2023-09-08T03:14:54;8.70;;;6.35;;
5555;SDS011;2801;50.972;7.856;2023-09-08T03:17:21;8.43;;;6.07;;
5555;SDS011;2801;50.972;7.856;2023-09-08T03:19:50;9.50;;;6.50;;
5555;SDS011;2801;50.972;7.856;2023-09-08T03:22:17;11.98;;;7.22;;
5555;SDS011;2801;50.972;7.856;2023-09-08T03:24:44;10.50;;;6.70;;
5555;SDS011;2801;50.972;7.856;2023-09-08T03:27:11;10.60;;;7.05;;
5555;SDS011;2801;50.972;7.856;2023-09-08T03:29:38;11.88;;;6.72;;
5555;SDS011;2801;50.972;7.856;2023-09-08T03:32:05;8.23;;;6.22;;
5555;SDS011;2801;50.972;7.856;2023-09-08T03:34:32;10.48;;;6.82;;
5555;SDS011;2801;50.972;7.856;2023-09-08T03:37:00;9.60;;;6.57;;
5555;SDS011;2801;50.972;7.856;2023-09-08T03:39:27;12.30;;;6.95;;
5555;SDS011;2801;50.972;7.856;2023-09-08T03:41:55;8.95;;;7.00;;
5555;SDS011;2801;50.972;7.856;2023-09-08T03:44:22;11.55;;;7.22;;
5555;SDS011;2801;50.972;7.856;2023-09-08T03:46:49;12.52;;;7.82;;
5555;SDS011;2801;50.972;7.856;2023-09-08T03:49:16;9.95;;;6.82;;
5555;SDS011;2801;50.972;7.856;2023-09-08T03:51:44;8.73;;;6.50;;
5555;SDS011;2801;50.972;7.856;2023-09-08T03:54:11;10.00;;;7.20;;
5555;SDS011;2801;50.972;7.856;2023-09-08T03:56:38;10.13;;;6.80;;
5555;SDS011;2801;50.972;7.856;2023-09-08T03:59:05;10.77;;;6.60;;
5555;SDS011;2801;50.972;7.856;2023-09-08T04:01:33;10.80;;;6.95;;
5555;SDS011;2801;50.972;7.856;2023-09-08T04:04:00;10.80;;;6.90;;
5555;SDS011;2801;50.972;7.856;2023-09-08T04:06:27;9.05;;;6.32;;
5555;SDS011;2801;50.972;7.856;2023-09-08T04:08:55;9.55;;;6.95;;
5555;SDS011;2801;50.972;7.856;2023-09-08T04:11:22;9.70;;;7.25;;
5555;SDS011;2801;50.972;7.856;2023-09-08T04:13:48;11.82;;;6.50;;
5555;SDS011;2801;50.972;7.856;2023-09-08T04:16:17;9.75;;;6.65;;
5555;SDS011;2801;50.972;7.856;2023-09-08T04:18:44;9.77;;;6.53;;
5555;SDS011;2801;50.972;7.856;2023-09-08T04:21:11;11.90;;;6.78;;
5555;SDS011;2801;50.972;7.856;2023-09-08T04:23:40;8.82;;;6.80;;
5555;SDS011;2801;50.972;7.856;2023-09-08T04:26:09;8.27;;;5.90;;
5555;SDS011;2801;50.972;7.856;2023-09-08T04:28:36;8.57;;;6.40;;
5555;SDS011;2801;50.972;7.856;2023-09-08T04:31:03;8.60;;;6.43;;
5555;SDS011;2801;50.972;7.856;2023-09-08T04:33:30;9.95;;;6.88;;
5555;SDS011;2801;50.972;7.856;2023-09-08T04:35:57;9.68;;;6.22;;
5555;SDS011;2801;50.972;7.856;2023-09-08T04:38:24;8.80;;;6.53;;
5555;SDS011;2801;50.972;7.856;2023-09-08T04:40:52;11.55;;;6.95;;
5555;SDS011;2801;50.972;7.856;2023-09-08T04:43:19;9.63;;;6.40;;
5555;SDS011;2801;50.972;7.856;2023-09-08T04:45:47;9.50;;;6.70;;
5555;SDS011;2801;50.972;7.856;2023-09-08T04:48:14;10.18;;;6.50;;
5555;SDS011;2801;50.972;7.856;2023-09-08T04:50:44;9.85;;;6.28;;
5555;SDS011;2801;50.972;7.856;2023-09-08T04:53:11;7.25;;;6.03;;
5555;SDS011;2801;50.972;7.856;2023-09-08T04:55:39;10.60;;;6.90;;
5555;SDS011;2801;50.972;7.856;2023-09-08T04:58:06;9.80;;;6.22;;
5555;SDS011;2801;50.972;7.856;2023-09-08T05:00:33;10.20;;;6.75;;
5555;SDS011;2801;50.972;7.856;2023-09-08T05:03:00;8.35;;;6.28;;
5555;SDS011;2801;50.972;7.856;2023-09-08T05:05:28;8.32;;;6.35;;
5555;SDS011;2801;50.972;7.856;2023-09-08T05:07:55;10.57;;;6.25;;
5555;SDS011;2801;50.972;7.856;2023-09-08T05:10:23;8.30;;;5.50;;
5555;SDS011;2801;50.972;7.856;2023-09-08T05:12:52;9.35;;;6.03;;
5555;SDS011;2801;50.972;7.856;2023-09-08T05:15:20;8.27;;;5.90;;
5555;SDS011;2801;50.972;7.856;2023-09-08T05:17:47;8.65;;;6.50;;
5555;SDS011;2801;50.972;7.856;2023-09-08T05:20:15;12.32;;;6.95;;
5555;SDS011;2801;50.972;7.856;2023-09-08T05:22:42;8.75;;;6.47;;
5555;SDS011;2801;50.972;7.856;2023-09-08T05:25:09;11.75;;;6.85;;
5555;SDS011;2801;50.972;7.856;2023-09-08T05:27:36;12.23;;;6.30;;
5555;SDS011;2801;50.972;7.856;2023-09-08T05:30:04;8.60;;;6.78;;
5555;SDS011;2801;50.972;7.856;2023-09-08T05:32:31;8.63;;;6.25;;
5555;SDS011;2801;50.972;7.856;2023-09-08T05:34:59;10.73;;;5.63;;
5555;SDS011;2801;50.972;7.856;2023-09-08T05:37:26;6.75;;;4.97;;
5555;SDS011;2801;50.972;7.856;2023-09-08T05:39:53;11.60;;;6.22;;
5555;SDS011;2801;50.972;7.856;2023-09-08T05:42:20;7.07;;;5.45;;
5555;SDS011;2801;50.972;7.856;2023-09-08T05:44:47;12.20;;;6.15;;
5555;SDS011;2801;50.972;7.856;2023-09-08T05:47:14;9.65;;;6.38;;
5555;SDS011;2801;50.972;7.856;2023-09-08T05:49:42;19.10;;;6.13;;
5555;SDS011;2801;50.972;7.856;2023-09-08T05:52:09;11.50;;;6.10;;
5555;SDS011;2801;50.972;7.856;2023-09-08T05:54:36;9.68;;;6.68;;
5555;SDS011;2801;50.972;7.856;2023-09-08T05:57:03;11.10;;;6.65;;
5555;SDS011;2801;50.972;7.856;2023-09-08T05:59:32;9.55;;;6.90;;
5555;SDS011;2801;50.972;7.856;2023-09-08T06:02:00;20.35;;;6.57;;
5555;SDS011;2801;50.972;7.856;2023-09-08T06:04:27;11.98;;;6.63;;
5555;SDS011;2801;50.972;7.856;2023-09-08T06:06:55;8.45;;;6.40;;
5555;SDS011;2801;50.972;7.856;2023-09-08T06:09:22;9.82;;;7.05;;
5555;SDS011;2801;50.972;7.856;2023-09-08T06:11:50;10.85;;;7.05;;
5555;SDS011;2801;50.972;7.856;2023-09-08T06:14:20;11.02;;;7.05;;
5555;SDS011;2801;50.972;7.856;2023-09-08T06:16:47;11.40;;;6.55;;
5555;SDS011;2801;50.972;7.856;2023-09-08T06:19:14;9.93;;;7.28;;
5555;SDS011;2801;50.972;7.856;2023-09-08T06:21:41;10.45;;;6.68;;
5555;SDS011;2801;50.972;7.856;2023-09-08T06:24:11;11.18;;;7.10;;
5555;SDS011;2801;50.972;7.856;2023-09-08T06:26:39;15.55;;;7.50;;
5555;SDS011;2801;50.972;7.856;2023-09-08T06:29:08;9.57;;;7.05;;
5555;SDS011;2801;50.972;7.856;2023-09-08T06:31:38;10.07;;;7.03;;
5555;SDS011;2801;50.972;7.856;2023-09-08T06:34:07;9.43;;;7.25;;
5555;SDS011;2801;50.972;7.856;2023-09-08T06:36:34;10.45;;;7.30;;
5555;SDS011;2801;50.972;7.856;2023-09-08T06:39:01;12.88;;;7.50;;
5555;SDS011;2801;50.972;7.856;2023-09-08T06:41:28;8.45;;;7.03;;
5555;SDS011;2801;50.972;7.856;2023-09-08T06:43:55;9.45;;;6.72;;
5555;SDS011;2801;50.972;7.856;2023-09-08T06:46:23;9.15;;;6.93;;
5555;SDS011;2801;50.972;7.856;2023-09-08T06:48:51;8.43;;;6.50;;
5555;SDS011;2801;50.972;7.856;2023-09-08T06:51:18;9.38;;;7.10;;
5555;SDS011;2801;50.972;7.856;2023-09-08T06:53:49;8.98;;;6.78;;
5555;SDS011;2801;50.972;7.856;2023-09-08T06:56:22;9.32;;;6.30;;
5555;SDS011;2801;50.972;7.856;2023-09-08T06:58:50;9.10;;;6.32;;
5555;SDS011;2801;50.972;7.856;2023-09-08T07:01:17;7.68;;;6.22;;
5555;SDS011;2801;50.972;7.856;2023-09-08T07:03:47;9.30;;;6.65;;
5555;SDS011;2801;50.972;7.856;2023-09-08T07:06:14;10.10;;;5.82;;
5555;SDS011;2801;50.972;7.856;2023-09-08T07:08:42;10.55;;;6.50;;
5555;SDS011;2801;50.972;7.856;2023-09-08T07:11:09;8.10;;;5.80;;
5555;SDS011;2801;50.972;7.856;2023-09-08T07:13:36;7.72;;;6.05;;
5555;SDS011;2801;50.972;7.856;2023-09-08T07:16:04;8.93;;;6.45;;
5555;SDS011;2801;50.972;7.856;2023-09-08T07:18:32;10.43;;;5.65;;
5555;SDS011;2801;50.972;7.856;2023-09-08T07:21:03;9.02;;;5.55;;
5555;SDS011;2801;50.972;7.856;2023-09-08T07:23:30;8.65;;;6.10;;
5555;SDS011;2801;50.972;7.856;2023-09-08T07:25:57;8.43;;;5.35;;
5555;SDS011;2801;50.972;7.856;2023-09-08T07:28:26;6.80;;;5.25;;
5555;SDS011;2801;50.972;7.856;2023-09-08T07:30:52;8.05;;;5.68;;
5555;SDS011;2801;50.972;7.856;2023-09-08T07:33:20;7.30;;;5.47;;
5555;SDS011;2801;50.972;7.856;2023-09-08T07:35:49;6.18;;;5.50;;
5555;SDS011;2801;50.972;7.856;2023-09-08T07:38:17;9.68;;;5.75;;
5555;SDS011;2801;50.972;7.856;2023-09-08T07:40:44;8.35;;;5.57;;
5555;SDS011;2801;50.972;7.856;2023-09-08T07:43:14;6.72;;;5.43;;
5555;SDS011;2801;50.972;7.856;2023-09-08T07:45:41;6.88;;;5.10;;
5555;SDS011;2801;50.972;7.856;2023-09-08T07:48:08;9.07;;;4.95;;
5555;SDS011;2801;50.972;7.856;2023-09-08T07:50:36;6.07;;;4.97;;
5555;SDS011;2801;50.972;7.856;2023-09-08T07:53:04;8.00;;;5.28;;
5555;SDS011;2801;50.972;7.856;2023-09-08T07:55:31;7.18;;;5.13;;
5555;SDS011;2801;50.972;7.856;2023-09-08T07:58:00;6.03;;;4.78;;
5555;SDS011;2801;50.972;7.856;2023-09-08T08:00:30;7.45;;;5.22;;
5555;SDS011;2801;50.972;7.856;2023-09-08T08:02:58;7.18;;;5.13;;
5555;SDS011;2801;50.972;7.856;2023-09-08T08:05:25;7.22;;;4.78;;
5555;SDS011;2801;50.972;7.856;2023-09-08T08:07:52;6.47;;;4.88;;
5555;SDS011;2801;50.972;7.856;2023-09-08T08:10:19;7.18;;;5.25;;
5555;SDS011;2801;50.972;7.856;2023-09-08T08:12:46;7.03;;;5.00;;
5555;SDS011;2801;50.972;7.856;2023-09-08T08:15:14;7.10;;;5.03;;
5555;SDS011;2801;50.972;7.856;2023-09-08T08:17:45;7.75;;;5.13;;
5555;SDS011;2801;50.972;7.856;2023-09-08T08:20:13;7.88;;;5.28;;
5555;SDS011;2801;50.972;7.856;2023-09-08T08:22:44;6.88;;;4.90;;
5555;SDS011;2801;50.972;7.856;2023-09-08T08:25:12;6.22;;;5.47;;
5555;SDS011;2801;50.972;7.856;2023-09-08T08:27:44;7.78;;;5.50;;
5555;SDS011;2801;50.972;7.856;2023-09-08T08:30:12;9.07;;;5.07;;
5555;SDS011;2801;50.972;7.856;2023-09-08T08:32:39;7.30;;;5.50;;
5555;SDS011;2801;50.972;7.856;2023-09-08T08:35:06;6.53;;;5.15;;
5555;SDS011;2801;50.972;7.856;2023-09-08T08:37:34;8.32;;;4.85;;
5555;SDS011;2801;50.972;7.856;2023-09-08T08:40:01;7.45;;;4.97;;
5555;SDS011;2801;50.972;7.856;2023-09-08T08:42:31;7.38;;;5.18;;
5555;SDS011;2801;50.972;7.856;2023-09-08T08:45:00;7.45;;;5.15;;
5555;SDS011;2801;50.972;7.856;2023-09-08T08:47:27;8.70;;;5.30;;
5555;SDS011;2801;50.972;7.856;2023-09-08T08:49:58;5.82;;;4.95;;
5555;SDS011;2801;50.972;7.856;2023-09-08T08:52:28;7.03;;;4.68;;
5555;SDS011;2801;50.972;7.856;2023-09-08T08:54:56;7.13;;;4.75;;
5555;SDS011;2801;50.972;7.856;2023-09-08T08:57:24;7.30;;;4.72;;
5555;SDS011;2801;50.972;7.856;2023-09-08T08:59:56;6.13;;;4.68;;
5555;SDS011;2801;50.972;7.856;2023-09-08T09:02:25;6.10;;;5.07;;
5555;SDS011;2801;50.972;7.856;2023-09-08T09:04:54;5.72;;;5.05;;
5555;SDS011;2801;50.972;7.856;2023-09-08T09:07:22;6.85;;;4.97;;
5555;SDS011;2801;50.972;7.856;2023-09-08T09:09:51;6.47;;;5.22;;
5555;SDS011;2801;50.972;7.856;2023-09-08T09:12:20;9.13;;;4.97;;
5555;SDS011;2801;50.972;7.856;2023-09-08T09:14:48;7.40;;;4.82;;
5555;SDS011;2801;50.972;7.856;2023-09-08T09:17:20;7.80;;;5.20;;
5555;SDS011;2801;50.972;7.856;2023-09-08T09:19:48;6.90;;;4.85;;
5555;SDS011;2801;50.972;7.856;2023-09-08T09:22:19;7.75;;;5.28;;
5555;SDS011;2801;50.972;7.856;2023-09-08T09:24:49;6.85;;;5.07;;
5555;SDS011;2801;50.972;7.856;2023-09-08T09:27:16;9.27;;;4.95;;
5555;SDS011;2801;50.972;7.856;2023-09-08T09:29:48;8.50;;;5.25;;
5555;SDS011;2801;50.972;7.856;2023-09-08T09:32:16;6.28;;;4.82;;
5555;SDS011;2801;50.972;7.856;2023-09-08T09:34:52;7.53;;;5.00;;
5555;SDS011;2801;50.972;7.856;2023-09-08T09:37:21;8.35;;;4.93;;
5555;SDS011;2801;50.972;7.856;2023-09-08T09:39:51;8.50;;;4.72;;
5555;SDS011;2801;50.972;7.856;2023-09-08T09:42:21;8.75;;;4.65;;
5555;SDS011;2801;50.972;7.856;2023-09-08T09:44:50;10.65;;;4.50;;
5555;SDS011;2801;50.972;7.856;2023-09-08T09:47:18;5.95;;;4.70;;
5555;SDS011;2801;50.972;7.856;2023-09-08T09:49:47;6.55;;;4.55;;
5555;SDS011;2801;50.972;7.856;2023-09-08T09:52:23;6.50;;;4.95;;
5555;SDS011;2801;50.972;7.856;2023-09-08T09:54:52;6.00;;;4.45;;
5555;SDS011;2801;50.972;7.856;2023-09-08T09:57:23;7.30;;;4.68;;
5555;SDS011;2801;50.972;7.856;2023-09-08T09:59:52;6.15;;;4.50;;
5555;SDS011;2801;50.972;7.856;2023-09-08T10:02:22;7.88;;;4.65;;
5555;SDS011;2801;50.972;7.856;2023-09-08T10:04:53;7.70;;;4.38;;
5555;SDS011;2801;50.972;7.856;2023-09-08T10:07:20;7.60;;;4.90;;
5555;SDS011;2801;50.972;7.856;2023-09-08T10:09:49;8.13;;;4.93;;
5555;SDS011;2801;50.972;7.856;2023-09-08T10:12:16;5.78;;;4.45;;
5555;SDS011;2801;50.972;7.856;2023-09-08T10:14:45;5.32;;;4.25;;
5555;SDS011;2801;50.972;7.856;2023-09-08T10:17:19;5.20;;;4.20;;
5555;SDS011;2801;50.972;7.856;2023-09-08T10:19:56;5.45;;;4.60;;
5555;SDS011;2801;50.972;7.856;2023-09-08T10:22:29;8.45;;;4.93;;
5555;SDS011;2801;50.972;7.856;2023-09-08T10:24:58;7.18;;;4.28;;
5555;SDS011;2801;50.972;7.856;2023-09-08T10:27:34;4.88;;;3.95;;
5555;SDS011;2801;50.972;7.856;2023-09-08T10:30:03;5.10;;;4.45;;
5555;SDS011;2801;50.972;7.856;2023-09-08T10:32:33;4.78;;;4.10;;
5555;SDS011;2801;50.972;7.856;2023-09-08T10:35:03;5.90;;;3.97;;
5555;SDS011;2801;50.972;7.856;2023-09-08T10:37:32;7.50;;;4.40;;
5555;SDS011;2801;50.972;7.856;2023-09-08T10:43:05;8.20;;;4.47;;
5555;SDS011;2801;50.972;7.856;2023-09-08T10:45:34;6.18;;;4.38;;
5555;SDS011;2801;50.972;7.856;2023-09-08T10:48:02;5.10;;;4.30;;
5555;SDS011;2801;50.972;7.856;2023-09-08T10:50:31;5.43;;;4.13;;
5555;SDS011;2801;50.972;7.856;2023-09-08T10:53:34;7.38;;;4.72;;
5555;SDS011;2801;50.972;7.856;2023-09-08T10:55:54;5.50;;;4.55;;
5555;SDS011;2801;50.972;7.856;2023-09-08T10:58:42;5.45;;;4.32;;
5555;SDS011;2801;50.972;7.856;2023-09-08T11:01:15;6.55;;;4.78;;
5555;SDS011;2801;50.972;7.856;2023-09-08T11:03:47;6.75;;;4.95;;
5555;SDS011;2801;50.972;7.856;2023-09-08T11:06:17;7.30;;;4.72;;
5555;SDS011;2801;50.972;7.856;2023-09-08T11:08:49;5.90;;;4.45;;
5555;SDS011;2801;50.972;7.856;2023-09-08T11:11:22;7.53;;;4.70;;
5555;SDS011;2801;50.972;7.856;2023-09-08T11:13:49;6.07;;;4.85;;
5555;SDS011;2801;50.972;7.856;2023-09-08T11:16:16;5.00;;;4.50;;
5555;SDS011;2801;50.972;7.856;2023-09-08T11:18:50;5.05;;;4.53;;
5555;SDS011;2801;50.972;7.856;2023-09-08T11:21:17;5.22;;;4.28;;
5555;SDS011;2801;50.972;7.856;2023-09-08T11:23:44;6.28;;;4.38;;
5555;SDS011;2801;50.972;7.856;2023-09-08T11:26:13;6.25;;;5.07;;
5555;SDS011;2801;50.972;7.856;2023-09-08T11:28:43;6.53;;;4.93;;
5555;SDS011;2801;50.972;7.856;2023-09-08T11:31:15;6.35;;;4.68;;
5555;SDS011;2801;50.972;7.856;2023-09-08T11:33:43;6.25;;;4.55;;
5555;SDS011;2801;50.972;7.856;2023-09-08T11:36:13;5.20;;;4.43;;
5555;SDS011;2801;50.972;7.856;2023-09-08T11:38:42;5.70;;;4.55;;
5555;SDS011;2801;50.972;7.856;2023-09-08T11:41:12;7.22;;;4.32;;
5555;SDS011;2801;50.972;7.856;2023-09-08T11:43:39;9.32;;;4.68;;
5555;SDS011;2801;50.972;7.856;2023-09-08T11:46:07;6.65;;;4.75;;
5555;SDS011;2801;50.972;7.856;2023-09-08T11:48:35;6.80;;;4.70;;
5555;SDS011;2801;50.972;7.856;2023-09-08T11:51:05;5.38;;;4.05;;
5555;SDS011;2801;50.972;7.856;2023-09-08T11:53:34;6.63;;;4.00;;
5555;SDS011;2801;50.972;7.856;2023-09-08T11:56:03;4.70;;;4.07;;
5555;SDS011;2801;50.972;7.856;2023-09-08T11:58:32;4.68;;;4.00;;
5555;SDS011;2801;50.972;7.856;2023-09-08T12:01:00;8.85;;;4.05;;
5555;SDS011;2801;50.972;7.856;2023-09-08T12:03:30;5.82;;;4.03;;
5555;SDS011;2801;50.972;7.856;2023-09-08T12:05:58;5.93;;;3.78;;
5555;SDS011;2801;50.972;7.856;2023-09-08T12:08:28;5.13;;;3.47;;
5555;SDS011;2801;50.972;7.856;2023-09-08T12:10:57;5.55;;;4.10;;
5555;SDS011;2801;50.972;7.856;2023-09-08T12:13:26;5.95;;;4.07;;
5555;SDS011;2801;50.972;7.856;2023-09-08T12:15:53;19.23;;;10.02;;
5555;SDS011;2801;50.972;7.856;2023-09-08T12:18:28;17.77;;;11.68;;
5555;SDS011;2801;50.972;7.856;2023-09-08T12:21:07;5.43;;;4.30;;
5555;SDS011;2801;50.972;7.856;2023-09-08T12:23:34;5.38;;;4.13;;
5555;SDS011;2801;50.972;7.856;2023-09-08T12:26:18;4.63;;;3.83;;
5555;SDS011;2801;50.972;7.856;2023-09-08T12:28:46;8.00;;;3.80;;
5555;SDS011;2801;50.972;7.856;2023-09-08T12:31:15;7.45;;;3.85;;
5555;SDS011;2801;50.972;7.856;2023-09-08T12:33:44;6.97;;;4.35;;
5555;SDS011;2801;50.972;7.856;2023-09-08T12:36:15;6.07;;;4.30;;
5555;SDS011;2801;50.972;7.856;2023-09-08T12:38:48;4.53;;;3.70;;
5555;SDS011;2801;50.972;7.856;2023-09-08T12:41:18;5.68;;;3.47;;
5555;SDS011;2801;50.972;7.856;2023-09-08T12:43:46;5.70;;;4.10;;
5555;SDS011;2801;50.972;7.856;2023-09-08T12:46:13;5.80;;;4.00;;
5555;SDS011;2801;50.972;7.856;2023-09-08T12:48:45;4.80;;;3.92;;
5555;SDS011;2801;50.972;7.856;2023-09-08T12:51:12;7.45;;;3.83;;
5555;SDS011;2801;50.972;7.856;2023-09-08T12:53:43;4.68;;;4.15;;
5555;SDS011;2801;50.972;7.856;2023-09-08T12:56:10;6.07;;;4.03;;
5555;SDS011;2801;50.972;7.856;2023-09-08T12:58:37;4.70;;;3.70;;
5555;SDS011;2801;50.972;7.856;2023-09-08T13:01:06;7.25;;;4.00;;
5555;SDS011;2801;50.972;7.856;2023-09-08T13:03:34;7.03;;;5.13;;
5555;SDS011;2801;50.972;7.856;2023-09-08T13:06:01;5.50;;;3.95;;
5555;SDS011;2801;50.972;7.856;2023-09-08T13:08:29;9.73;;;5.70;;
5555;SDS011;2801;50.972;7.856;2023-09-08T13:10:56;5.68;;;5.00;;
5555;SDS011;2801;50.972;7.856;2023-09-08T13:13:24;7.60;;;5.50;;
5555;SDS011;2801;50.972;7.856;2023-09-08T13:15:51;12.32;;;5.93;;
5555;SDS011;2801;50.972;7.856;2023-09-08T13:18:20;7.05;;;5.70;;
5555;SDS011;2801;50.972;7.856;2023-09-08T13:20:47;7.00;;;4.60;;
5555;SDS011;2801;50.972;7.856;2023-09-08T13:23:14;6.05;;;4.35;;
5555;SDS011;2801;50.972;7.856;2023-09-08T13:25:43;6.20;;;4.18;;
5555;SDS011;2801;50.972;7.856;2023-09-08T13:28:11;7.90;;;4.63;;
5555;SDS011;2801;50.972;7.856;2023-09-08T13:30:39;5.05;;;4.00;;
5555;SDS011;2801;50.972;7.856;2023-09-08T13:33:06;6.93;;;3.85;;
5555;SDS011;2801;50.972;7.856;2023-09-08T13:35:36;5.63;;;3.90;;
5555;SDS011;2801;50.972;7.856;2023-09-08T13:38:05;4.10;;;3.70;;
5555;SDS011;2801;50.972;7.856;2023-09-08T13:40:33;6.97;;;3.45;;
5555;SDS011;2801;50.972;7.856;2023-09-08T13:43:00;4.22;;;3.78;;
5555;SDS011;2801;50.972;7.856;2023-09-08T13:45:27;6.53;;;4.15;;
5555;SDS011;2801;50.972;7.856;2023-09-08T13:47:56;5.78;;;4.35;;
5555;SDS011;2801;50.972;7.856;2023-09-08T13:50:25;5.13;;;3.88;;
5555;SDS011;2801;50.972;7.856;2023-09-08T13:52:53;4.63;;;3.35;;
5555;SDS011;2801;50.972;7.856;2023-09-08T13:55:21;4.15;;;3.63;;
5555;SDS011;2801;50.972;7.856;2023-09-08T13:58:03;3.42;;;3.08;;
5555;SDS011;2801;50.972;7.856;2023-09-08T14:00:36;6.07;;;3.60;;
5555;SDS011;2801;50.972;7.856;2023-09-08T14:03:11;4.95;;;3.70;;
5555;SDS011;2801;50.972;7.856;2023-09-08T14:05:41;6.00;;;3.60;;
5555;SDS011;2801;50.972;7.856;2023-09-08T14:08:12;4.80;;;3.33;;
5555;SDS011;2801;50.972;7.856;2023-09-08T14:10:53;5.68;;;3.60;;
5555;SDS011;2801;50.972;7.856;2023-09-08T14:13:25;3.97;;;3.40;;
5555;SDS011;2801;50.972;7.856;2023-09-08T14:15:54;3.60;;;3.20;;
5555;SDS011;2801;50.972;7.856;2023-09-08T14:18:21;5.72;;;3.35;;
5555;SDS011;2801;50.972;7.856;2023-09-08T14:20:49;4.75;;;3.42;;
5555;SDS011;2801;50.972;7.856;2023-09-08T14:23:17;5.97;;;3.40;;
5555;SDS011;2801;50.972;7.856;2023-09-08T14:25:44;4.88;;;3.80;;
5555;SDS011;2801;50.972;7.856;2023-09-08T14:28:11;4.82;;;3.65;;
5555;SDS011;2801;50.972;7.856;2023-09-08T14:30:40;4.72;;;3.78;;
5555;SDS011;2801;50.972;7.856;2023-09-08T14:33:07;4.55;;;3.28;;
5555;SDS011;2801;50.972;7.856;2023-09-08T14:35:41;5.32;;;3.63;;
5555;SDS011;2801;50.972;7.856;2023-09-08T14:38:17;4.03;;;3.42;;
5555;SDS011;2801;50.972;7.856;2023-09-08T14:40:44;4.90;;;3.25;;
5555;SDS011;2801;50.972;7.856;2023-09-08T14:43:21;7.57;;;3.65;;
5555;SDS011;2801;50.972;7.856;2023-09-08T14:45:48;5.35;;;3.90;;
5555;SDS011;2801;50.972;7.856;2023-09-08T14:48:15;3.85;;;3.40;;
5555;SDS011;2801;50.972;7.856;2023-09-08T14:50:42;5.65;;;3.20;;
5555;SDS011;2801;50.972;7.856;2023-09-08T14:53:11;3.85;;;3.45;;
5555;SDS011;2801;50.972;7.856;2023-09-08T14:55:38;5.57;;;3.83;;
5555;SDS011;2801;50.972;7.856;2023-09-08T14:58:08;5.15;;;4.25;;
5555;SDS011;2801;50.972;7.856;2023-09-08T15:00:40;5.57;;;4.10;;
5555;SDS011;2801;50.972;7.856;2023-09-08T15:03:09;6.43;;;4.00;;
5555;SDS011;2801;50.972;7.856;2023-09-08T15:05:36;5.55;;;3.50;;
5555;SDS011;2801;50.972;7.856;2023-09-08T15:08:03;4.78;;;3.58;;
5555;SDS011;2801;50.972;7.856;2023-09-08T15:10:32;3.80;;;3.30;;
5555;SDS011;2801;50.972;7.856;2023-09-08T15:13:00;4.30;;;3.88;;
5555;SDS011;2801;50.972;7.856;2023-09-08T15:15:27;3.80;;;3.40;;
5555;SDS011;2801;50.972;7.856;2023-09-08T15:17:55;5.95;;;3.85;;
5555;SDS011;2801;50.972;7.856;2023-09-08T15:20:25;5.82;;;3.60;;
5555;SDS011;2801;50.972;7.856;2023-09-08T15:22:51;4.53;;;3.65;;
5555;SDS011;2801;50.972;7.856;2023-09-08T15:25:19;3.97;;;3.58;;
5555;SDS011;2801;50.972;7.856;2023-09-08T15:27:46;4.55;;;3.63;;